Time;durP1;ratioP1;P1;durP2;ratioP2;P2;SDS_P1;SDS_P2;PMS_P1;PMS_P2;Temp;Humidity;BMP_temperature;BMP_pressure;BME280_temperature;BME280_humidity;BME280_pressure;Samples;Min_cycle;Max_cycle;Signal;HPM_P1;HPM_P2
2023/08/24 00:00:20;;;;;;;9.20;6.07;;;19.10;99.90;;;;;;4954749;28;20474;-84
2023/08/24 00:02:46;;;;;;;7.87;5.70;;;19.10;99.90;;;;;;4951975;28;20546;-82
2023/08/24 00:05:12;;;;;;;8.63;5.37;;;19.10;99.90;;;;;;4951765;28;20559;-82
2023/08/24 00:07:38;;;;;;;6.40;5.70;;;19.10;99.90;;;;;;4958931;28;20526;-83
2023/08/24 00:10:04;;;;;;;9.33;6.27;;;19.10;99.90;;;;;;4953390;28;21534;-81
2023/08/24 00:12:30;;;;;;;10.43;5.50;;;19.00;99.90;;;;;;4953425;28;22842;-81
2023/08/24 00:14:55;;;;;;;6.83;6.23;;;18.90;99.90;;;;;;4955122;28;20438;-86
2023/08/24 00:17:22;;;;;;;12.10;5.80;;;18.70;99.90;;;;;;4963196;28;20183;-82
2023/08/24 00:19:49;;;;;;;7.30;5.87;;;18.70;99.90;;;;;;4958510;28;20231;-79
2023/08/24 00:22:15;;;;;;;11.17;6.60;;;18.70;99.90;;;;;;4961685;28;20508;-80
2023/08/24 00:24:40;;;;;;;7.80;6.33;;;18.70;99.90;;;;;;4965432;28;20451;-81
2023/08/24 00:27:06;;;;;;;13.43;7.23;;;18.70;99.90;;;;;;4972907;28;20966;-83
2023/08/24 00:29:31;;;;;;;7.73;5.90;;;18.80;99.90;;;;;;4952346;28;20219;-82
2023/08/24 00:31:58;;;;;;;9.80;5.70;;;19.90;99.90;;;;;;4949850;28;20913;-80
2023/08/24 00:34:23;;;;;;;8.13;5.67;;;19.00;99.90;;;;;;4959335;28;20191;-81
2023/08/24 00:36:49;;;;;;;8.80;5.70;;;18.80;99.90;;;;;;4953947;28;20816;-86
2023/08/24 00:39:16;;;;;;;6.50;5.87;;;18.80;99.90;;;;;;4956325;28;23143;-81
2023/08/24 00:41:42;;;;;;;9.37;7.10;;;18.70;99.90;;;;;;4945059;28;21444;-82
2023/08/24 00:44:07;;;;;;;11.67;7.57;;;18.80;99.90;;;;;;4963466;28;20430;-81
2023/08/24 00:46:34;;;;;;;7.93;6.83;;;19.90;99.90;;;;;;4967421;28;20184;-84
2023/08/24 00:49:00;;;;;;;6.10;5.40;;;18.70;99.90;;;;;;4959963;28;20219;-81
2023/08/24 00:51:25;;;;;;;8.97;6.77;;;18.70;99.90;;;;;;4961308;28;20439;-85
2023/08/24 00:53:51;;;;;;;12.63;8.00;;;18.80;99.90;;;;;;4970081;28;20192;-83
2023/08/24 00:56:17;;;;;;;11.53;7.60;;;18.80;99.90;;;;;;4991217;28;21075;-86
2023/08/24 00:58:44;;;;;;;13.03;8.93;;;18.80;99.90;;;;;;4970168;28;20203;-80
2023/08/24 01:01:10;;;;;;;11.90;9.80;;;19.00;99.90;;;;;;4968744;28;20180;-86
2023/08/24 01:03:35;;;;;;;11.00;9.90;;;19.00;99.90;;;;;;4967128;28;20450;-82
2023/08/24 01:06:01;;;;;;;11.57;8.30;;;20.50;99.90;;;;;;4969607;28;20808;-84
2023/08/24 01:08:27;;;;;;;9.63;7.90;;;19.10;99.90;;;;;;4977046;28;20252;-83
2023/08/24 01:11:17;;;;;;;8.60;7.70;;;19.00;99.90;;;;;;4980370;28;20178;-84
2023/08/24 01:13:46;;;;;;;16.43;9.00;;;19.00;99.90;;;;;;4970856;28;21955;-84
2023/08/24 01:16:18;;;;;;;9.77;7.97;;;18.90;99.90;;;;;;4974769;28;20434;-81
2023/08/24 01:18:44;;;;;;;10.83;9.83;;;18.80;99.90;;;;;;4971201;28;20565;-85
2023/08/24 01:21:12;;;;;;;12.10;9.80;;;18.70;99.90;;;;;;4972829;28;20446;-83
2023/08/24 01:23:59;;;;;;;13.90;10.20;;;18.60;99.90;;;;;;4968193;28;20470;-84
2023/08/24 01:26:24;;;;;;;12.77;11.27;;;18.50;99.90;;;;;;4974443;28;20430;-81
2023/08/24 01:28:50;;;;;;;12.60;10.23;;;18.40;99.90;;;;;;4980624;28;20841;-86
2023/08/24 01:31:16;;;;;;;11.60;10.40;;;18.40;99.90;;;;;;4976773;28;20223;-84
2023/08/24 01:33:43;;;;;;;16.03;10.13;;;18.30;99.90;;;;;;4973047;28;20183;-84
2023/08/24 01:36:10;;;;;;;12.47;10.17;;;18.30;99.90;;;;;;4977944;28;20541;-82
2023/08/24 01:38:37;;;;;;;17.30;10.87;;;18.20;99.90;;;;;;4978044;28;20438;-83
2023/08/24 01:41:13;;;;;;;10.93;9.83;;;18.20;99.90;;;;;;4973457;28;21009;-80
2023/08/24 01:43:41;;;;;;;10.47;8.20;;;18.20;99.90;;;;;;4973484;28;20426;-83
2023/08/24 01:46:08;;;;;;;9.60;8.47;;;18.20;99.90;;;;;;4974763;28;20819;-84
2023/08/24 01:48:34;;;;;;;15.23;8.07;;;18.20;99.90;;;;;;4966338;28;20477;-84
2023/08/24 01:51:01;;;;;;;13.57;9.20;;;18.10;99.90;;;;;;4974572;28;20442;-83
2023/08/24 01:53:30;;;;;;;12.17;10.17;;;18.10;99.90;;;;;;4967308;28;20434;-80
2023/08/24 01:55:56;;;;;;;14.47;9.90;;;18.10;99.90;;;;;;4983962;28;20550;-85
2023/08/24 01:58:22;;;;;;;10.63;8.10;;;18.10;99.90;;;;;;4979518;28;20454;-80
2023/08/24 02:00:48;;;;;;;10.07;8.67;;;18.10;99.90;;;;;;4991851;28;20535;-85
2023/08/24 02:03:13;;;;;;;12.03;8.73;;;18.00;99.90;;;;;;4985888;28;20315;-83
2023/08/24 02:05:39;;;;;;;14.53;9.33;;;17.90;99.90;;;;;;4971122;28;20194;-83
2023/08/24 02:08:04;;;;;;;9.43;8.53;;;17.90;99.90;;;;;;4974406;28;20237;-84
2023/08/24 02:10:30;;;;;;;9.80;8.80;;;17.80;99.90;;;;;;4977128;28;20768;-84
2023/08/24 02:12:55;;;;;;;9.93;7.80;;;17.80;99.90;;;;;;4978724;28;20182;-87
2023/08/24 02:15:21;;;;;;;9.63;8.10;;;17.90;99.90;;;;;;4976252;28;20640;-81
2023/08/24 02:17:47;;;;;;;11.10;8.73;;;18.00;99.90;;;;;;4987878;28;20176;-79
2023/08/24 02:20:12;;;;;;;9.90;7.80;;;18.10;99.90;;;;;;4985516;28;20222;-83
2023/08/24 02:22:38;;;;;;;10.87;9.47;;;18.10;99.90;;;;;;4971997;28;20312;-84
2023/08/24 02:25:05;;;;;;;9.20;8.20;;;18.20;99.90;;;;;;4978290;28;20184;-82
2023/08/24 02:27:32;;;;;;;10.50;8.57;;;18.20;99.90;;;;;;4975993;28;20182;-82
2023/08/24 02:29:57;;;;;;;9.13;7.60;;;18.30;99.90;;;;;;4977111;28;20470;-84
2023/08/24 02:32:23;;;;;;;14.37;8.13;;;18.20;99.90;;;;;;4976653;28;20551;-80
2023/08/24 02:34:48;;;;;;;12.60;11.37;;;18.10;99.90;;;;;;4987514;28;20187;-84
2023/08/24 02:37:14;;;;;;;9.63;8.13;;;18.10;99.90;;;;;;4976582;28;20191;-86
2023/08/24 02:39:40;;;;;;;13.83;8.37;;;18.10;99.90;;;;;;4974872;28;20590;-85
2023/08/24 02:42:05;;;;;;;11.50;8.60;;;18.00;99.90;;;;;;4978155;28;20196;-84
2023/08/24 02:44:31;;;;;;;10.23;8.90;;;18.10;99.90;;;;;;4970417;28;20199;-83
2023/08/24 02:46:57;;;;;;;13.93;9.20;;;18.10;99.90;;;;;;4975287;28;20215;-85
2023/08/24 02:49:23;;;;;;;12.57;9.37;;;18.10;99.90;;;;;;4969200;28;20220;-84
2023/08/24 02:51:48;;;;;;;9.87;8.43;;;18.10;99.90;;;;;;4972230;28;20434;-86
2023/08/24 02:54:14;;;;;;;11.27;7.80;;;18.10;99.90;;;;;;4973441;28;20639;-85
2023/08/24 02:56:39;;;;;;;12.23;9.10;;;18.00;99.90;;;;;;4974765;28;20172;-82
2023/08/24 02:59:05;;;;;;;10.53;8.40;;;17.90;99.90;;;;;;4974414;28;20235;-85
2023/08/24 03:01:31;;;;;;;10.67;9.57;;;17.80;99.90;;;;;;4972506;28;20182;-86
2023/08/24 03:03:56;;;;;;;10.73;9.17;;;17.70;99.90;;;;;;4976814;28;20668;-84
2023/08/24 03:06:24;;;;;;;13.07;9.57;;;17.80;99.90;;;;;;4974985;28;20207;-84
2023/08/24 03:08:49;;;;;;;14.80;10.27;;;17.70;99.90;;;;;;4975307;28;20216;-82
2023/08/24 03:11:15;;;;;;;15.13;9.30;;;17.60;99.90;;;;;;4974894;28;20433;-85
2023/08/24 03:13:40;;;;;;;14.00;9.23;;;17.60;99.90;;;;;;4973919;28;20179;-86
2023/08/24 03:16:07;;;;;;;11.43;10.17;;;17.60;99.90;;;;;;4980306;28;20555;-82
2023/08/24 03:18:33;;;;;;;14.40;8.63;;;17.50;99.90;;;;;;4970547;28;20214;-85
2023/08/24 03:20:58;;;;;;;13.40;9.03;;;17.50;99.90;;;;;;4973587;28;21022;-84
2023/08/24 03:23:24;;;;;;;14.57;9.53;;;17.60;99.90;;;;;;4975460;28;20462;-84
2023/08/24 03:25:51;;;;;;;12.03;9.43;;;17.50;99.90;;;;;;4979534;28;20244;-82
2023/08/24 03:28:16;;;;;;;17.27;10.80;;;17.40;99.90;;;;;;4991390;28;20525;-82
2023/08/24 03:30:47;;;;;;;17.07;10.30;;;17.30;99.90;;;;;;4975571;28;20459;-85
2023/08/24 03:33:12;;;;;;;10.60;9.50;;;17.40;99.90;;;;;;4973308;28;20206;-85
2023/08/24 03:35:38;;;;;;;12.53;9.40;;;17.40;99.90;;;;;;4974926;28;20463;-86
2023/08/24 03:38:04;;;;;;;16.17;10.93;;;17.50;99.90;;;;;;4972544;28;20187;-84
2023/08/24 03:40:30;;;;;;;12.10;11.00;;;17.60;99.90;;;;;;4981582;28;20217;-81
2023/08/24 03:42:55;;;;;;;12.63;10.60;;;17.80;99.90;;;;;;4980028;28;20183;-81
2023/08/24 03:45:22;;;;;;;8.43;7.47;;;18.00;99.90;;;;;;4982255;28;20434;-81
2023/08/24 03:47:48;;;;;;;8.43;7.30;;;18.10;99.90;;;;;;4973859;28;20191;-83
2023/08/24 03:50:14;;;;;;;10.63;7.50;;;18.00;99.90;;;;;;4976166;28;20515;-84
2023/08/24 03:52:39;;;;;;;9.70;8.27;;;18.00;99.90;;;;;;4984011;28;20470;-85
2023/08/24 03:55:06;;;;;;;9.13;7.40;;;18.00;99.90;;;;;;4977160;28;20289;-84
2023/08/24 03:57:31;;;;;;;8.47;7.67;;;17.90;99.90;;;;;;4974771;28;20222;-84
2023/08/24 03:59:57;;;;;;;8.70;7.90;;;18.00;99.90;;;;;;4973369;28;21022;-86
2023/08/24 04:02:23;;;;;;;10.57;8.80;;;18.00;99.90;;;;;;4970691;28;20255;-86
2023/08/24 04:04:50;;;;;;;11.47;7.83;;;18.10;99.90;;;;;;4972448;28;20740;-85
2023/08/24 04:07:16;;;;;;;8.70;7.90;;;18.20;99.90;;;;;;4974514;28;20187;-84
2023/08/24 04:09:41;;;;;;;17.10;9.07;;;18.30;99.90;;;;;;4973374;28;20823;-80
2023/08/24 04:12:07;;;;;;;13.33;8.93;;;18.40;99.90;;;;;;4971150;28;20536;-85
2023/08/24 04:14:33;;;;;;;12.77;11.23;;;18.40;99.90;;;;;;4969582;28;20180;-83
2023/08/24 04:16:58;;;;;;;10.50;8.80;;;18.50;99.90;;;;;;4971360;28;20518;-83
2023/08/24 04:19:24;;;;;;;13.50;9.10;;;18.50;99.90;;;;;;4974469;28;20718;-84
2023/08/24 04:21:49;;;;;;;8.53;7.50;;;18.50;99.90;;;;;;4977352;28;20205;-84
2023/08/24 04:24:15;;;;;;;10.03;8.17;;;18.40;99.90;;;;;;4982985;28;20422;-83
2023/08/24 04:26:40;;;;;;;11.33;8.87;;;18.30;99.90;;;;;;4975581;28;20195;-79
2023/08/24 04:29:06;;;;;;;11.47;9.20;;;18.30;99.90;;;;;;4983906;28;20215;-84
2023/08/24 04:31:31;;;;;;;10.63;9.53;;;18.30;99.90;;;;;;4981818;28;20196;-82
2023/08/24 04:33:57;;;;;;;13.60;8.53;;;18.30;99.90;;;;;;4969995;28;20185;-83
2023/08/24 04:36:22;;;;;;;11.77;8.43;;;18.30;99.90;;;;;;4970072;28;22168;-82
2023/08/24 04:38:48;;;;;;;11.37;10.17;;;18.30;99.90;;;;;;4971919;28;20246;-81
2023/08/24 04:41:13;;;;;;;13.07;10.80;;;18.30;99.90;;;;;;4972053;28;20236;-80
2023/08/24 04:43:39;;;;;;;12.47;11.27;;;18.20;99.90;;;;;;4974652;28;20230;-82
2023/08/24 04:46:04;;;;;;;14.43;11.90;;;18.20;99.90;;;;;;4969726;28;20191;-83
2023/08/24 04:48:34;;;;;;;15.47;12.00;;;18.10;99.90;;;;;;4973750;28;20203;-80
2023/08/24 04:51:03;;;;;;;15.30;11.77;;;18.00;99.90;;;;;;4975161;28;20273;-82
2023/08/24 04:53:29;;;;;;;15.77;12.80;;;18.00;99.90;;;;;;4975736;28;20516;-82
2023/08/24 04:55:55;;;;;;;15.97;12.33;;;18.00;99.90;;;;;;4973332;28;20545;-80
2023/08/24 04:58:21;;;;;;;15.60;12.50;;;18.00;99.90;;;;;;4986062;28;20514;-83
2023/08/24 05:00:48;;;;;;;15.23;11.50;;;18.00;99.90;;;;;;4993605;28;20911;-81
2023/08/24 05:03:14;;;;;;;13.77;10.93;;;18.10;99.90;;;;;;4991999;28;20443;-80
2023/08/24 05:05:39;;;;;;;16.87;10.50;;;18.10;99.90;;;;;;4990280;28;20453;-84
2023/08/24 05:08:06;;;;;;;13.60;11.67;;;18.10;99.90;;;;;;4979825;28;20246;-84
2023/08/24 05:10:33;;;;;;;19.40;11.50;;;18.20;99.90;;;;;;4978801;28;20202;-83
2023/08/24 05:12:59;;;;;;;16.50;10.40;;;18.30;99.90;;;;;;4971983;28;20459;-83
2023/08/24 05:15:25;;;;;;;18.60;10.40;;;18.40;99.90;;;;;;4979226;28;20491;-81
2023/08/24 05:17:54;;;;;;;12.03;10.13;;;18.60;99.90;;;;;;4973025;28;20434;-84
2023/08/24 05:20:20;;;;;;;16.80;10.87;;;18.80;99.90;;;;;;4979920;28;20190;-84
2023/08/24 05:22:45;;;;;;;13.13;10.37;;;18.90;99.90;;;;;;4977805;28;20461;-82
2023/08/24 05:25:11;;;;;;;16.70;12.37;;;19.00;99.90;;;;;;4977676;28;20818;-84
2023/08/24 05:27:37;;;;;;;12.80;10.17;;;19.40;99.90;;;;;;4977580;28;20373;-83
2023/08/24 05:30:05;;;;;;;17.23;10.83;;;19.90;99.90;;;;;;4973303;28;20960;-85
2023/08/24 05:32:30;;;;;;;15.47;9.80;;;20.30;99.90;;;;;;4977438;28;20187;-81
2023/08/24 05:34:56;;;;;;;12.77;10.10;;;21.00;99.90;;;;;;4980679;28;20451;-82
2023/08/24 05:37:21;;;;;;;11.43;10.23;;;21.20;99.90;;;;;;4977137;28;20187;-84
2023/08/24 05:39:47;;;;;;;13.97;11.03;;;21.20;99.90;;;;;;4977510;28;20212;-81
2023/08/24 05:42:12;;;;;;;12.13;11.00;;;21.10;99.90;;;;;;4977896;28;20306;-83
2023/08/24 05:44:38;;;;;;;12.10;9.83;;;21.40;99.90;;;;;;4977302;28;20681;-82
2023/08/24 05:47:03;;;;;;;10.17;9.10;;;22.70;99.90;;;;;;4969821;28;20194;-79
2023/08/24 05:49:29;;;;;;;11.00;8.83;;;24.10;99.90;;;;;;4971760;28;20215;-80
2023/08/24 05:51:55;;;;;;;10.37;7.97;;;25.60;99.90;;;;;;4973528;28;20267;-86
2023/08/24 05:54:21;;;;;;;14.57;9.80;;;26.00;99.90;;;;;;4973314;28;20467;-79
2023/08/24 05:56:47;;;;;;;14.73;8.97;;;26.20;99.90;;;;;;4982015;28;20603;-83
2023/08/24 05:59:13;;;;;;;14.43;8.43;;;27.00;99.90;;;;;;4972192;28;20206;-85
2023/08/24 06:01:39;;;;;;;11.00;8.57;;;27.50;99.90;;;;;;4967239;28;20457;-83
2023/08/24 06:04:05;;;;;;;9.67;8.30;;;28.80;99.90;;;;;;4966979;28;20543;-80
2023/08/24 06:06:31;;;;;;;8.80;7.90;;;29.90;99.90;;;;;;4972437;28;20192;-86
2023/08/24 06:08:57;;;;;;;16.00;9.80;;;29.20;99.90;;;;;;4971347;28;20811;-81
2023/08/24 06:11:22;;;;;;;13.13;8.10;;;28.20;99.90;;;;;;4981527;28;20187;-86
2023/08/24 06:13:48;;;;;;;12.33;9.33;;;28.70;99.90;;;;;;4970182;28;20216;-82
2023/08/24 06:16:14;;;;;;;10.40;8.10;;;29.50;99.90;;;;;;4986780;28;20241;-78
2023/08/24 06:18:39;;;;;;;11.13;7.93;;;29.40;99.90;;;;;;4982814;28;20200;-85
2023/08/24 06:21:05;;;;;;;20.87;8.90;;;28.90;99.90;;;;;;4979680;28;21202;-82
2023/08/24 06:23:30;;;;;;;17.57;9.83;;;27.90;99.90;;;;;;4974870;28;20818;-81
2023/08/24 06:25:56;;;;;;;12.63;8.90;;;26.30;99.90;;;;;;4971988;28;20206;-84
2023/08/24 06:28:21;;;;;;;11.90;9.97;;;25.40;99.90;;;;;;4971307;28;20210;-78
2023/08/24 06:30:47;;;;;;;10.30;8.43;;;24.40;99.90;;;;;;4984377;28;20654;-82
2023/08/24 06:33:13;;;;;;;13.37;10.17;;;23.80;99.90;;;;;;4975039;28;20190;-86
2023/08/24 06:35:40;;;;;;;11.83;9.43;;;22.80;99.90;;;;;;4975308;28;20428;-86
2023/08/24 06:38:05;;;;;;;13.13;10.93;;;21.70;99.90;;;;;;4967670;28;20848;-87
2023/08/24 06:40:31;;;;;;;23.53;11.27;;;21.40;99.90;;;;;;4967806;28;20491;-83
2023/08/24 06:42:57;;;;;;;11.93;10.73;;;21.60;99.90;;;;;;4963203;28;20207;-84
2023/08/24 06:45:23;;;;;;;13.57;10.43;;;21.50;99.90;;;;;;4968489;28;20184;-85
2023/08/24 06:47:48;;;;;;;15.10;10.20;;;21.50;99.90;;;;;;4967245;28;20450;-82
2023/08/24 06:50:15;;;;;;;14.60;11.10;;;21.50;99.90;;;;;;4967285;28;20231;-85
2023/08/24 06:52:41;;;;;;;14.40;10.53;;;21.40;99.90;;;;;;4973113;28;20179;-83
2023/08/24 06:55:08;;;;;;;10.40;9.30;;;22.00;99.90;;;;;;4971166;28;21991;-83
2023/08/24 06:57:33;;;;;;;9.63;8.57;;;23.10;99.90;;;;;;4970711;28;20462;-83
2023/08/24 07:00:00;;;;;;;11.23;8.20;;;23.00;99.90;;;;;;4975803;28;20645;-81
2023/08/24 07:02:25;;;;;;;12.73;7.90;;;22.80;99.90;;;;;;4979711;28;20205;-83
2023/08/24 07:04:51;;;;;;;12.33;7.27;;;23.00;99.90;;;;;;4968503;28;20878;-83
2023/08/24 07:07:16;;;;;;;12.07;7.80;;;23.20;99.90;;;;;;4972241;28;20675;-85
2023/08/24 07:09:42;;;;;;;8.13;7.43;;;23.80;99.90;;;;;;4966724;28;20249;-83
2023/08/24 07:12:10;;;;;;;9.73;7.07;;;24.00;99.90;;;;;;4963202;28;20209;-84
2023/08/24 07:14:36;;;;;;;10.37;8.07;;;24.30;99.90;;;;;;4966161;28;20179;-85
2023/08/24 07:17:01;;;;;;;7.90;6.83;;;24.50;99.90;;;;;;4970099;28;20437;-83
2023/08/24 07:19:27;;;;;;;9.77;7.53;;;25.00;99.90;;;;;;4973420;28;20567;-83
2023/08/24 07:21:52;;;;;;;7.20;6.20;;;25.20;99.90;;;;;;4973078;28;20210;-84
2023/08/24 07:24:22;;;;;;;7.60;6.80;;;25.50;99.90;;;;;;4972045;28;20212;-84
2023/08/24 07:26:48;;;;;;;7.40;6.70;;;25.90;99.90;;;;;;4977480;28;20197;-83
2023/08/24 07:29:14;;;;;;;10.47;6.90;;;26.50;99.90;;;;;;4970483;28;21952;-83
2023/08/24 07:31:39;;;;;;;7.53;5.93;;;26.90;99.90;;;;;;4974110;28;20178;-84
2023/08/24 07:34:05;;;;;;;11.47;6.57;;;27.40;99.90;;;;;;4973750;28;20210;-77
2023/08/24 07:36:31;;;;;;;8.77;6.93;;;28.60;99.90;;;;;;4989737;28;20207;-85
2023/08/24 07:38:56;;;;;;;8.73;5.40;;;29.40;99.90;;;;;;4976139;28;20208;-83
2023/08/24 07:41:22;;;;;;;10.90;6.10;;;28.90;99.90;;;;;;4973852;28;20191;-78
2023/08/24 07:43:48;;;;;;;7.57;5.50;;;29.30;99.90;;;;;;4969454;28;20476;-79
2023/08/24 07:46:13;;;;;;;12.07;7.00;;;31.30;99.90;;;;;;4975573;28;20684;-79
2023/08/24 07:48:39;;;;;;;9.53;5.33;;;33.70;99.90;;;;;;4972774;28;20218;-86
2023/08/24 07:51:05;;;;;;;6.13;5.17;;;35.40;95.30;;;;;;4964414;28;20196;-85
2023/08/24 07:53:32;;;;;;;8.10;5.50;;;36.70;88.30;;;;;;4967917;28;20186;-82
2023/08/24 07:55:59;;;;;;;8.67;5.60;;;38.10;79.10;;;;;;4974159;28;20180;-81
2023/08/24 07:58:25;;;;;;;7.63;6.20;;;38.70;70.10;;;;;;4973635;28;20441;-83
2023/08/24 08:00:53;;;;;;;8.43;6.87;;;39.40;68.50;;;;;;4969630;28;20468;-83
2023/08/24 08:03:19;;;;;;;6.93;6.43;;;39.60;62.10;;;;;;4973969;28;20448;-82
2023/08/24 08:05:46;;;;;;;11.87;7.90;;;39.30;58.30;;;;;;4969668;28;20446;-78
2023/08/24 08:08:14;;;;;;;8.17;7.67;;;39.90;56.00;;;;;;4975431;28;20470;-81
2023/08/24 08:10:40;;;;;;;11.07;10.13;;;40.60;54.50;;;;;;4976944;28;20458;-83
2023/08/24 08:13:06;;;;;;;9.77;8.93;;;39.50;52.10;;;;;;4976470;28;20485;-83
2023/08/24 08:15:31;;;;;;;10.53;9.70;;;39.90;53.80;;;;;;4968976;28;20422;-81
2023/08/24 08:17:57;;;;;;;10.27;9.60;;;40.70;52.90;;;;;;4969154;28;20490;-86
2023/08/24 08:20:23;;;;;;;11.37;10.40;;;41.40;51.40;;;;;;4964464;28;20195;-80
2023/08/24 08:22:48;;;;;;;10.53;9.73;;;40.60;49.90;;;;;;4980271;28;20259;-82
2023/08/24 08:25:17;;;;;;;11.37;10.13;;;39.00;50.40;;;;;;4977868;28;20217;-83
2023/08/24 08:27:43;;;;;;;15.30;8.70;;;38.60;50.80;;;;;;4980930;28;20180;-80
2023/08/24 08:30:10;;;;;;;10.97;9.40;;;39.00;51.80;;;;;;4984203;28;20481;-81
2023/08/24 08:32:35;;;;;;;10.57;8.00;;;38.00;52.90;;;;;;4973058;28;21154;-81
2023/08/24 08:35:01;;;;;;;9.10;8.17;;;36.80;55.20;;;;;;4966493;28;20450;-82
2023/08/24 08:37:27;;;;;;;9.27;8.67;;;37.10;56.50;;;;;;4978578;28;20187;-86
2023/08/24 08:39:53;;;;;;;9.63;8.80;;;37.50;54.90;;;;;;4977414;28;20199;-83
2023/08/24 08:42:18;;;;;;;14.30;8.60;;;39.00;54.20;;;;;;4971038;28;21547;-84
2023/08/24 08:44:46;;;;;;;10.93;10.10;;;39.40;53.20;;;;;;4974390;28;20183;-85
2023/08/24 08:47:13;;;;;;;11.40;10.60;;;39.60;51.50;;;;;;4977266;28;20203;-85
2023/08/24 08:49:39;;;;;;;14.77;11.77;;;40.10;50.50;;;;;;4974534;28;20474;-88
2023/08/24 08:52:06;;;;;;;12.10;11.30;;;40.90;47.40;;;;;;4974528;28;20431;-81
2023/08/24 08:54:32;;;;;;;11.73;10.57;;;41.00;47.80;;;;;;4972813;28;20180;-88
2023/08/24 08:56:59;;;;;;;11.47;10.67;;;41.20;47.20;;;;;;4975594;28;20434;-80
2023/08/24 08:59:30;;;;;;;12.50;11.70;;;41.30;47.00;;;;;;4988167;28;20467;-86
2023/08/24 09:02:01;;;;;;;13.70;12.70;;;41.30;46.60;;;;;;4975346;28;20442;-84
2023/08/24 09:04:30;;;;;;;14.50;13.20;;;42.30;46.70;;;;;;4984226;28;20505;-83
2023/08/24 09:06:56;;;;;;;14.20;12.90;;;43.20;43.80;;;;;;4973409;28;20497;-80
2023/08/24 09:09:25;;;;;;;13.87;12.77;;;43.40;45.20;;;;;;4972729;28;20478;-83
2023/08/24 09:11:51;;;;;;;13.80;12.80;;;42.50;45.20;;;;;;4982222;28;20438;-84
2023/08/24 09:14:19;;;;;;;15.33;14.00;;;43.10;43.80;;;;;;4974739;28;21028;-84
2023/08/24 09:16:45;;;;;;;15.23;14.00;;;42.30;44.70;;;;;;4967254;28;20459;-85
2023/08/24 09:19:11;;;;;;;14.07;13.17;;;40.90;45.40;;;;;;4966606;28;20466;-80
2023/08/24 09:21:38;;;;;;;14.50;13.03;;;40.80;46.00;;;;;;4968552;28;20202;-84
2023/08/24 09:24:04;;;;;;;13.80;12.80;;;41.10;45.70;;;;;;4974069;28;20775;-82
2023/08/24 09:26:31;;;;;;;14.67;13.87;;;41.30;46.10;;;;;;4970929;28;20442;-85
2023/08/24 09:28:57;;;;;;;14.73;13.70;;;41.00;45.90;;;;;;4962196;28;20478;-82
2023/08/24 09:31:24;;;;;;;13.70;12.90;;;40.80;46.50;;;;;;4969342;28;20480;-83
2023/08/24 09:33:49;;;;;;;14.80;13.70;;;40.10;47.40;;;;;;4962863;28;20446;-82
2023/08/24 09:36:16;;;;;;;13.73;12.93;;;40.00;47.50;;;;;;4980760;28;20430;-85
2023/08/24 09:38:52;;;;;;;13.93;12.90;;;39.50;48.60;;;;;;4977976;28;20190;-83
2023/08/24 09:41:17;;;;;;;14.23;13.07;;;39.20;50.00;;;;;;4974206;28;20483;-84
2023/08/24 09:43:43;;;;;;;14.57;13.33;;;39.00;49.20;;;;;;4969893;28;20533;-82
2023/08/24 09:46:08;;;;;;;13.17;12.17;;;37.80;50.00;;;;;;4963482;28;21083;-83
2023/08/24 09:48:34;;;;;;;13.47;12.57;;;37.40;52.10;;;;;;4958331;28;20214;-82
2023/08/24 09:51:04;;;;;;;11.93;11.23;;;37.40;53.30;;;;;;4958487;28;20655;-80
2023/08/24 09:53:33;;;;;;;11.53;10.53;;;36.60;52.30;;;;;;4970177;28;20200;-80
2023/08/24 09:56:02;;;;;;;10.93;9.53;;;35.90;54.60;;;;;;4969230;28;20459;-83
2023/08/24 09:58:29;;;;;;;9.57;8.70;;;34.70;56.60;;;;;;4973739;28;20438;-80
2023/08/24 10:00:55;;;;;;;9.77;8.87;;;34.40;57.60;;;;;;4971995;28;20430;-83
2023/08/24 10:03:28;;;;;;;18.37;8.27;;;34.40;57.60;;;;;;4970325;28;20455;-78
2023/08/24 10:06:02;;;;;;;9.70;8.57;;;34.60;59.40;;;;;;4967739;28;20446;-83
2023/08/24 10:08:34;;;;;;;10.23;8.23;;;35.00;58.10;;;;;;4971069;28;20522;-82
2023/08/24 10:10:59;;;;;;;8.53;7.30;;;34.40;59.40;;;;;;4966424;28;20439;-83
2023/08/24 10:13:49;;;;;;;7.93;7.23;;;34.60;61.10;;;;;;4972604;28;20492;-81
2023/08/24 10:16:16;;;;;;;8.63;7.87;;;34.60;61.70;;;;;;4972841;28;20186;-82
2023/08/24 10:18:42;;;;;;;9.43;7.83;;;34.50;60.90;;;;;;4973867;28;20444;-80
2023/08/24 10:21:08;;;;;;;13.23;7.97;;;34.60;62.50;;;;;;4982874;28;20472;-82
2023/08/24 10:23:35;;;;;;;11.00;8.20;;;33.90;63.80;;;;;;4975088;28;20316;-84
2023/08/24 10:26:03;;;;;;;14.77;6.77;;;33.30;65.50;;;;;;4968518;28;20489;-80
2023/08/24 10:28:29;;;;;;;9.37;7.33;;;32.30;68.70;;;;;;4969341;28;20495;-80
2023/08/24 10:30:57;;;;;;;9.57;7.23;;;32.10;70.20;;;;;;4964242;28;21310;-82
2023/08/24 10:33:23;;;;;;;9.30;7.20;;;31.70;72.60;;;;;;4965848;28;20661;-79
2023/08/24 10:35:49;;;;;;;11.17;6.83;;;31.70;74.60;;;;;;4959635;28;20433;-83
2023/08/24 10:38:29;;;;;;;11.53;6.20;;;31.60;76.60;;;;;;4964535;28;20444;-80
2023/08/24 10:41:06;;;;;;;8.10;5.80;;;31.60;78.10;;;;;;4969771;28;20200;-83
2023/08/24 10:43:40;;;;;;;8.10;5.93;;;31.90;80.20;;;;;;4968406;28;20513;-83
2023/08/24 10:46:13;;;;;;;11.80;5.73;;;32.10;77.60;;;;;;4974703;28;20858;-83
2023/08/24 10:48:42;;;;;;;8.67;6.10;;;32.00;77.10;;;;;;4967560;28;20464;-84
2023/08/24 10:51:14;;;;;;;8.97;6.40;;;32.10;80.80;;;;;;4967279;28;21032;-79
2023/08/24 10:53:40;;;;;;;7.10;6.40;;;32.20;79.10;;;;;;4968580;28;21050;-84
2023/08/24 10:56:13;;;;;;;6.53;5.80;;;32.20;78.00;;;;;;4963366;28;20456;-89
2023/08/24 10:58:39;;;;;;;7.10;6.50;;;31.90;81.00;;;;;;4963536;28;20438;-86
2023/08/24 11:01:04;;;;;;;6.80;6.23;;;32.40;81.10;;;;;;4977369;28;20492;-84
2023/08/24 11:03:34;;;;;;;7.87;6.37;;;32.40;81.00;;;;;;4970306;28;20510;-85
2023/08/24 11:05:59;;;;;;;6.70;6.10;;;32.60;80.30;;;;;;4965692;28;20190;-85
2023/08/24 11:08:48;;;;;;;7.13;6.43;;;32.70;82.60;;;;;;4964482;28;21050;-85
2023/08/24 11:11:25;;;;;;;9.30;7.13;;;32.80;82.90;;;;;;4969367;28;20239;-86
2023/08/24 11:14:13;;;;;;;11.57;6.63;;;32.80;81.10;;;;;;4967767;28;20447;-85
2023/08/24 11:16:40;;;;;;;12.90;7.60;;;32.80;81.60;;;;;;4970615;28;20441;-82
2023/08/24 11:19:10;;;;;;;11.93;7.40;;;32.70;80.50;;;;;;4977028;28;20892;-87
2023/08/24 11:21:38;;;;;;;7.10;6.50;;;32.50;83.00;;;;;;4983297;28;20462;-83
2023/08/24 11:24:05;;;;;;;10.20;7.37;;;32.30;82.60;;;;;;4974265;28;20451;-80
2023/08/24 11:26:31;;;;;;;11.73;7.30;;;32.40;83.70;;;;;;4973517;28;20433;-85
2023/08/24 11:28:57;;;;;;;8.70;6.70;;;32.10;83.70;;;;;;4972758;28;20576;-83
2023/08/24 11:31:26;;;;;;;8.33;7.20;;;32.00;86.40;;;;;;4978269;28;20189;-87
2023/08/24 11:33:56;;;;;;;12.13;6.63;;;31.80;85.50;;;;;;4985614;28;20433;-82
2023/08/24 11:36:23;;;;;;;8.03;6.93;;;31.80;85.80;;;;;;4985491;28;20427;-83
2023/08/24 11:38:52;;;;;;;10.07;7.33;;;31.80;87.40;;;;;;4977282;28;20432;-85
2023/08/24 11:41:19;;;;;;;10.30;6.67;;;31.90;88.60;;;;;;4975876;28;20512;-86
2023/08/24 11:43:48;;;;;;;7.70;6.90;;;32.00;88.00;;;;;;4994935;28;20434;-79
2023/08/24 11:46:15;;;;;;;7.37;6.77;;;32.10;87.60;;;;;;4988678;28;21084;-84
2023/08/24 11:48:41;;;;;;;6.90;6.20;;;32.10;87.90;;;;;;4976989;28;20534;-86
2023/08/24 11:51:12;;;;;;;6.70;6.00;;;32.20;87.20;;;;;;4977473;28;21308;-84
2023/08/24 11:53:45;;;;;;;11.73;7.27;;;32.20;86.80;;;;;;4971523;28;20469;-83
2023/08/24 11:56:12;;;;;;;14.97;7.17;;;32.00;88.60;;;;;;4975834;28;20543;-82
2023/08/24 11:58:40;;;;;;;7.53;6.43;;;32.10;87.90;;;;;;4970641;28;20441;-82
2023/08/24 12:01:08;;;;;;;13.47;7.00;;;32.40;85.30;;;;;;4974175;28;20446;-82
2023/08/24 12:03:35;;;;;;;9.40;7.10;;;32.40;88.50;;;;;;4975891;28;20446;-85
2023/08/24 12:06:03;;;;;;;7.90;7.13;;;32.50;86.10;;;;;;4972729;28;20534;-80
2023/08/24 12:08:29;;;;;;;8.33;7.50;;;32.60;87.00;;;;;;4971328;28;20497;-83
2023/08/24 12:10:55;;;;;;;7.70;6.40;;;32.70;85.30;;;;;;4968155;28;20456;-79
2023/08/24 12:13:22;;;;;;;7.40;6.50;;;32.80;85.60;;;;;;4972088;28;20910;-80
2023/08/24 12:15:50;;;;;;;10.90;6.97;;;32.80;85.00;;;;;;4974271;28;20451;-79
2023/08/24 12:18:16;;;;;;;8.13;7.07;;;33.00;84.40;;;;;;4971682;28;20451;-83
2023/08/24 12:20:42;;;;;;;8.13;6.00;;;33.10;86.10;;;;;;4969736;28;21141;-84
2023/08/24 12:23:09;;;;;;;8.23;7.40;;;33.40;85.60;;;;;;4966094;28;20208;-80
2023/08/24 12:25:42;;;;;;;11.77;6.80;;;33.40;83.50;;;;;;4967354;28;20443;-82
2023/08/24 12:28:09;;;;;;;11.53;6.63;;;33.40;84.70;;;;;;4968334;28;20503;-81
2023/08/24 12:30:45;;;;;;;9.77;6.93;;;33.30;86.60;;;;;;4977687;28;20452;-81
2023/08/24 12:33:32;;;;;;;8.63;6.50;;;33.60;83.90;;;;;;4967552;28;20436;-85
2023/08/24 12:36:02;;;;;;;7.60;6.90;;;33.40;83.30;;;;;;4962744;28;22084;-80